Terminal Aerodrome Forecast
Issued by NWS

Home | Current Version | Previous Version | Text Only | Print | Product List | Glossary On
Versions: 1 2 3 4 5 6 7 8 9 10 11 12 13
000
FTUS42 TJSJ 281725
TAFKPK
TAF
TKPK 281725Z 2818/2918 08011KT P6SM FEW020 SCT050
     FM282300 06012KT P6SM SCT018
     FM291200 11010KT P6SM FEW022 SCT070
      AMD NOT SKED 2902/2911=

USA.gov is the U.S. government's official web portal to all federal, state and local government web resources and services.